首页
METAR-TAF:

METAR-TAF

机场 :

Greenville Downtown Airport

格林维尔, 南卡罗来纳州, 美国

纬度: 34-50-46N, 经度: 082-20-46W, 海拔: 319米

当前天气观测

该预报发布于20分钟前的13:53 UTC
风速6节,风向西转西南
温度 13°C
湿度 77%
气压 1017 hPa
能見度: 16.1公里
天空无云

METAR: KGMU 201353Z 24006KT 10SM CLR 13/09 A3004 RMK AO2 SLP169 T01280089

时间: 09:13 (14:13 UTC)

预报

该预报发布于2小时和33分钟前的11:40 UTC
预报有效从20日的 12点(UTC)到 21日的 12点(UTC)
风速7节,风向西转西南
能見度: 10公里
散云层高于5000英尺
多云层高于15000英尺
从 20日的 1400点(UTC)
风速9节,风向西
能見度: 10公里
少量云层高于6000英尺
多云层高于20000英尺
从 20日的 1700点(UTC)
风速10节,风向北转西北
能見度: 10公里
散云层高于25000英尺
从 20日的 2300点(UTC)
风速6节,风向
能見度: 10公里
少量云层高于25000英尺
从 21日的 0400点(UTC)
风速3节,风向北转东北
能見度: 10公里
天空无云

TAF: KGMU 201140Z 2012/2112 25007KT P6SM SCT050 BKN150 FM201400 28009KT P6SM FEW060 BKN200 FM201700 33010KT P6SM SCT250 FM202300 36006KT P6SM FEW250 FM210400 03003KT P6SM SKC

超过4000个机场的气象观测和天气预报(METAR&TAF报告)。

可查询的气象台以黄色和红色小点在地图上表示。

将鼠标移到小点上方,可查看气象台名称。

然后点击查看天气观测和预报。

如需切换地图:点击带黑十字的绿色按钮放大地图;点击带横线的绿色按钮缩小地图;或者点击绿色箭头查看邻近地区的地图。


METAR-TAF: